Time;durP1;ratioP1;P1;durP2;ratioP2;P2;SDS_P1;SDS_P2;PMS_P1;PMS_P2;Temp;Humidity;BMP_temperature;BMP_pressure;BME280_temperature;BME280_humidity;BME280_pressure;Samples;Min_cycle;Max_cycle;Signal;HPM_P1;HPM_P2
2022/01/20 00:00:18;;;;;;;30.60;18.90;;;;;;;;;;4984721;28;20072;-59
2022/01/20 00:02:46;;;;;;;28.83;18.92;;;;;;;;;;4986705;28;20045;-58
2022/01/20 00:27:05;;;;;;;26.30;16.42;;;;;;;;;;4983018;28;20086;-55
2022/01/20 00:29:32;;;;;;;25.92;18.08;;;;;;;;;;4989213;28;20065;-57
2022/01/20 00:32:18;;;;;;;28.95;18.10;;;;;;;;;;4995695;28;20061;-55
2022/01/20 00:37:38;;;;;;;29.58;17.73;;;;;;;;;;4982521;28;20062;-57
2022/01/20 00:40:04;;;;;;;31.02;17.95;;;;;;;;;;4985177;28;20124;-58
2022/01/20 00:42:30;;;;;;;24.95;15.93;;;;;;;;;;4981034;28;20105;-56
2022/01/20 00:44:56;;;;;;;24.25;17.15;;;;;;;;;;4977185;28;20042;-53
2022/01/20 00:47:22;;;;;;;22.90;15.18;;;;;;;;;;4982302;28;20042;-53
2022/01/20 00:49:48;;;;;;;24.42;16.13;;;;;;;;;;4982946;28;20952;-57
2022/01/20 00:52:15;;;;;;;24.63;16.63;;;;;;;;;;4985716;28;20030;-54
2022/01/20 00:54:41;;;;;;;25.85;15.45;;;;;;;;;;4979056;28;20039;-55
2022/01/20 00:57:07;;;;;;;26.77;15.48;;;;;;;;;;4973804;28;20031;-57
2022/01/20 00:59:33;;;;;;;26.55;14.55;;;;;;;;;;4983742;28;20049;-57
2022/01/20 01:02:05;;;;;;;26.75;15.23;;;;;;;;;;4979796;28;20105;-55
2022/01/20 01:04:31;;;;;;;27.75;14.68;;;;;;;;;;4977050;28;20034;-56
2022/01/20 01:09:22;;;;;;;23.45;14.48;;;;;;;;;;4973231;28;20034;-53
2022/01/20 01:11:50;;;;;;;24.00;15.02;;;;;;;;;;4981229;28;20641;-57
2022/01/20 01:14:18;;;;;;;22.98;14.20;;;;;;;;;;4983202;28;20039;-56
2022/01/20 01:22:20;;;;;;;17.40;11.82;;;;;;;;;;4982352;28;20050;-57
2022/01/20 01:24:54;;;;;;;17.27;12.10;;;;;;;;;;4988344;28;20069;-56
2022/01/20 01:27:22;;;;;;;16.30;11.55;;;;;;;;;;4987056;28;20034;-57
2022/01/20 01:30:19;;;;;;;19.08;11.57;;;;;;;;;;4990800;28;20077;-54
2022/01/20 01:32:51;;;;;;;15.45;10.45;;;;;;;;;;4987967;28;20093;-54
2022/01/20 01:35:19;;;;;;;;;;;;;;;;;;4991238;28;20031;-56
2022/01/20 01:40:30;;;;;;;15.68;10.30;;;;;;;;;;4990661;28;20035;-51
2022/01/20 01:42:56;;;;;;;14.02;9.85;;;;;;;;;;4989818;28;20431;-53
2022/01/20 01:45:35;;;;;;;18.13;9.77;;;;;;;;;;4983130;28;20086;-55
2022/01/20 01:48:02;;;;;;;14.23;10.38;;;;;;;;;;4989123;28;20037;-54
2022/01/20 01:50:28;;;;;;;15.20;9.88;;;;;;;;;;4994036;28;20076;-58
2022/01/20 01:52:56;;;;;;;14.52;10.02;;;;;;;;;;4991888;28;20499;-57
2022/01/20 01:55:22;;;;;;;14.75;9.77;;;;;;;;;;4985148;28;20023;-56
2022/01/20 01:57:48;;;;;;;13.07;8.38;;;;;;;;;;4990285;28;20032;-58
2022/01/20 02:00:15;;;;;;;9.23;7.18;;;;;;;;;;4978052;28;20030;-53
2022/01/20 02:02:42;;;;;;;8.27;6.85;;;;;;;;;;4987038;28;20031;-53
2022/01/20 02:05:11;;;;;;;11.55;7.75;;;;;;;;;;4986832;28;20088;-54
2022/01/20 02:18:45;;;;;;;6.38;5.18;;;;;;;;;;4990107;28;20399;-56
2022/01/20 02:21:10;;;;;;;8.07;4.75;;;;;;;;;;4994480;28;20035;-58
2022/01/20 02:23:36;;;;;;;9.10;4.90;;;;;;;;;;4996312;28;20049;-55
2022/01/20 02:26:02;;;;;;;6.72;4.60;;;;;;;;;;4984281;28;20057;-57
2022/01/20 02:28:28;;;;;;;6.00;4.53;;;;;;;;;;4987595;28;20026;-57
2022/01/20 02:30:54;;;;;;;5.68;4.25;;;;;;;;;;4985402;28;20030;-56
2022/01/20 02:33:23;;;;;;;4.97;4.35;;;;;;;;;;4997040;28;20042;-55
2022/01/20 02:35:52;;;;;;;5.00;4.15;;;;;;;;;;4991513;28;20045;-55
2022/01/20 02:38:38;;;;;;;4.90;4.15;;;;;;;;;;4988609;28;20030;-55
2022/01/20 02:46:35;;;;;;;4.70;4.20;;;;;;;;;;4986557;28;20038;-56
2022/01/20 02:49:01;;;;;;;4.28;3.67;;;;;;;;;;4989484;28;20042;-56
2022/01/20 02:51:27;;;;;;;4.57;4.10;;;;;;;;;;4983613;28;20041;-56
2022/01/20 02:53:52;;;;;;;3.92;3.50;;;;;;;;;;4985407;28;20530;-52
2022/01/20 02:56:19;;;;;;;5.45;4.43;;;;;;;;;;4987881;28;20609;-54
2022/01/20 02:58:45;;;;;;;7.78;4.40;;;;;;;;;;4989617;28;20029;-54
2022/01/20 03:01:11;;;;;;;4.57;3.50;;;;;;;;;;4983408;28;20399;-52
2022/01/20 03:03:37;;;;;;;5.70;3.63;;;;;;;;;;4987710;28;20033;-57
2022/01/20 03:06:03;;;;;;;5.50;3.95;;;;;;;;;;4984266;28;20041;-55
2022/01/20 03:08:29;;;;;;;7.00;3.72;;;;;;;;;;4981856;28;20057;-58
2022/01/20 03:10:55;;;;;;;4.57;3.95;;;;;;;;;;4992035;28;20462;-56
2022/01/20 03:13:21;;;;;;;5.63;3.97;;;;;;;;;;4988899;28;20030;-55
2022/01/20 03:15:47;;;;;;;4.85;3.50;;;;;;;;;;4986627;28;20041;-56
2022/01/20 03:18:12;;;;;;;4.32;3.92;;;;;;;;;;4984655;28;20481;-54
2022/01/20 03:20:38;;;;;;;4.72;3.95;;;;;;;;;;4984885;28;20030;-57
2022/01/20 03:23:04;;;;;;;4.68;3.97;;;;;;;;;;4988232;28;20134;-55
2022/01/20 03:25:30;;;;;;;4.00;3.60;;;;;;;;;;4984243;28;20041;-54
2022/01/20 03:27:57;;;;;;;4.18;3.55;;;;;;;;;;4983187;28;20030;-56
2022/01/20 03:30:24;;;;;;;4.18;3.75;;;;;;;;;;4988735;28;20026;-53
2022/01/20 03:32:50;;;;;;;3.47;3.13;;;;;;;;;;4986026;28;20053;-54
2022/01/20 03:35:17;;;;;;;5.50;3.75;;;;;;;;;;4981571;28;20114;-57
2022/01/20 03:37:42;;;;;;;8.07;3.40;;;;;;;;;;4982873;28;20030;-57
2022/01/20 03:40:09;;;;;;;4.72;3.70;;;;;;;;;;4986173;28;20466;-56
2022/01/20 03:42:35;;;;;;;4.32;3.90;;;;;;;;;;4984553;28;20050;-57
2022/01/20 03:45:02;;;;;;;4.45;3.75;;;;;;;;;;4994010;28;20499;-56
2022/01/20 03:47:28;;;;;;;4.40;3.97;;;;;;;;;;4984525;28;20039;-57
2022/01/20 03:50:07;;;;;;;5.63;4.25;;;;;;;;;;4988732;28;20031;-59
2022/01/20 03:52:33;;;;;;;5.30;4.47;;;;;;;;;;4982769;28;20050;-58
2022/01/20 03:54:59;;;;;;;6.93;4.95;;;;;;;;;;4986193;28;20469;-54
2022/01/20 03:57:25;;;;;;;6.97;4.45;;;;;;;;;;4984418;28;20044;-55
2022/01/20 03:59:51;;;;;;;6.20;4.68;;;;;;;;;;4992263;28;20038;-57
2022/01/20 04:02:17;;;;;;;5.03;4.45;;;;;;;;;;4986509;28;20046;-58
2022/01/20 04:04:42;;;;;;;5.57;4.78;;;;;;;;;;4983613;28;20084;-54
2022/01/20 04:07:08;;;;;;;6.25;4.97;;;;;;;;;;4986309;28;20033;-55
2022/01/20 04:09:34;;;;;;;5.60;4.82;;;;;;;;;;4978592;28;20038;-55
2022/01/20 04:11:59;;;;;;;6.03;4.95;;;;;;;;;;4988811;28;20109;-57
2022/01/20 04:14:28;;;;;;;12.90;4.85;;;;;;;;;;4992139;28;20282;-58
2022/01/20 04:19:26;;;;;;;10.18;6.97;;;;;;;;;;4979369;28;20410;-55
2022/01/20 04:21:52;;;;;;;8.88;6.75;;;;;;;;;;4987843;28;20030;-58
2022/01/20 04:24:18;;;;;;;9.00;6.70;;;;;;;;;;4979230;28;20070;-57
2022/01/20 04:26:45;;;;;;;12.40;6.22;;;;;;;;;;4992512;28;20057;-57
2022/01/20 04:29:11;;;;;;;7.72;5.55;;;;;;;;;;4987751;28;20034;-53
2022/01/20 04:31:39;;;;;;;8.50;5.85;;;;;;;;;;4984802;28;20062;-57
2022/01/20 04:34:06;;;;;;;6.40;5.72;;;;;;;;;;4982186;28;20034;-54
2022/01/20 04:36:35;;;;;;;7.93;5.10;;;;;;;;;;4979492;28;20027;-57
2022/01/20 04:39:04;;;;;;;6.55;5.38;;;;;;;;;;4984074;28;20042;-58
2022/01/20 04:41:30;;;;;;;6.38;5.38;;;;;;;;;;4995716;28;20018;-57
2022/01/20 04:43:57;;;;;;;6.55;5.28;;;;;;;;;;4988925;28;20473;-57
2022/01/20 04:46:33;;;;;;;5.75;5.13;;;;;;;;;;4990489;28;20093;-57
2022/01/20 04:57:06;;;;;;;5.53;5.03;;;;;;;;;;4991431;28;20022;-56
2022/01/20 04:57:16;;;;;;;10.68;6.20;;;;;;;;;;4992858;28;20034;-57
2022/01/20 04:59:44;;;;;;;7.32;5.18;;;;;;;;;;4988141;28;20031;-58
2022/01/20 05:02:10;;;;;;;5.28;4.70;;;;;;;;;;4988723;28;20031;-54
2022/01/20 05:04:36;;;;;;;5.57;5.05;;;;;;;;;;4984466;28;20040;-57
2022/01/20 05:07:03;;;;;;;6.47;5.60;;;;;;;;;;4985157;28;20156;-58
2022/01/20 05:09:28;;;;;;;5.95;5.03;;;;;;;;;;4986377;28;20030;-56
2022/01/20 05:12:04;;;;;;;6.22;4.85;;;;;;;;;;4981841;28;20061;-58
2022/01/20 05:14:30;;;;;;;6.53;4.95;;;;;;;;;;4989162;28;20035;-58
2022/01/20 05:16:58;;;;;;;7.07;4.75;;;;;;;;;;4984906;28;20042;-52
2022/01/20 05:19:25;;;;;;;5.63;4.70;;;;;;;;;;4989726;28;20042;-58
2022/01/20 05:21:51;;;;;;;5.18;4.65;;;;;;;;;;4982612;28;20029;-55
2022/01/20 05:24:17;;;;;;;5.38;4.70;;;;;;;;;;4985858;28;20071;-57
2022/01/20 05:26:43;;;;;;;6.07;4.55;;;;;;;;;;4979782;28;20108;-56
2022/01/20 05:29:09;;;;;;;7.82;4.70;;;;;;;;;;4994921;28;20026;-57
2022/01/20 05:31:34;;;;;;;6.25;4.80;;;;;;;;;;4992952;28;20129;-55
2022/01/20 05:34:00;;;;;;;6.40;4.90;;;;;;;;;;4996545;28;20041;-54
2022/01/20 05:36:26;;;;;;;5.03;4.18;;;;;;;;;;4985528;28;20027;-56
2022/01/20 05:38:52;;;;;;;4.80;4.38;;;;;;;;;;4982937;28;20154;-57
2022/01/20 05:41:18;;;;;;;4.85;4.35;;;;;;;;;;4980925;28;20026;-58
2022/01/20 05:43:44;;;;;;;6.47;5.22;;;;;;;;;;4991101;28;20033;-58
2022/01/20 05:46:10;;;;;;;5.38;4.63;;;;;;;;;;4985396;28;20042;-58
2022/01/20 05:48:36;;;;;;;5.40;4.47;;;;;;;;;;4980261;28;20038;-55
2022/01/20 05:51:04;;;;;;;4.88;4.45;;;;;;;;;;4989744;28;20034;-53
2022/01/20 05:53:31;;;;;;;4.80;4.03;;;;;;;;;;4987159;28;20050;-58
2022/01/20 05:55:57;;;;;;;5.47;4.55;;;;;;;;;;4986216;28;20031;-55
2022/01/20 05:58:22;;;;;;;5.15;4.63;;;;;;;;;;4981919;28;20034;-57
2022/01/20 06:00:49;;;;;;;5.30;4.80;;;;;;;;;;4985082;28;20040;-57
2022/01/20 06:05:59;;;;;;;6.55;4.47;;;;;;;;;;4984315;28;20070;-57
2022/01/20 06:08:25;;;;;;;6.63;4.63;;;;;;;;;;4981585;28;20489;-57
2022/01/20 06:10:51;;;;;;;6.43;4.78;;;;;;;;;;4988598;28;20077;-57
2022/01/20 06:13:17;;;;;;;8.10;5.80;;;;;;;;;;4982713;28;20083;-58
2022/01/20 06:15:42;;;;;;;6.75;5.03;;;;;;;;;;4995564;28;20378;-57
2022/01/20 06:18:09;;;;;;;10.68;5.40;;;;;;;;;;4990439;28;20034;-58
2022/01/20 06:20:36;;;;;;;6.32;5.28;;;;;;;;;;4985133;28;20470;-58
2022/01/20 06:23:05;;;;;;;6.60;4.72;;;;;;;;;;4985907;28;20096;-56
2022/01/20 06:25:30;;;;;;;5.60;5.00;;;;;;;;;;4987568;28;20037;-54
2022/01/20 06:27:56;;;;;;;6.50;5.10;;;;;;;;;;4988882;28;20042;-56
2022/01/20 06:30:24;;;;;;;6.03;4.82;;;;;;;;;;4991003;28;20715;-58
2022/01/20 06:32:53;;;;;;;5.47;4.85;;;;;;;;;;4992563;28;20112;-52
2022/01/20 06:35:20;;;;;;;6.50;4.43;;;;;;;;;;4990311;28;20112;-56
2022/01/20 06:37:46;;;;;;;6.13;5.40;;;;;;;;;;4987677;28;20117;-56
2022/01/20 06:40:13;;;;;;;5.05;4.60;;;;;;;;;;4986512;28;20161;-58
2022/01/20 06:42:39;;;;;;;5.60;4.88;;;;;;;;;;4983215;28;20371;-51
2022/01/20 06:45:07;;;;;;;6.28;5.18;;;;;;;;;;4992861;28;20034;-57
2022/01/20 06:47:33;;;;;;;6.50;5.22;;;;;;;;;;4979814;28;20394;-57
2022/01/20 06:50:00;;;;;;;7.65;4.70;;;;;;;;;;4987805;28;20113;-57
2022/01/20 06:52:27;;;;;;;5.38;4.90;;;;;;;;;;4981392;28;20034;-58
2022/01/20 06:54:53;;;;;;;5.55;4.97;;;;;;;;;;4988219;28;20076;-58
2022/01/20 06:57:19;;;;;;;10.13;5.07;;;;;;;;;;4981231;28;20489;-58
2022/01/20 06:59:45;;;;;;;6.88;5.28;;;;;;;;;;4987303;28;20371;-56
2022/01/20 07:02:10;;;;;;;5.80;5.20;;;;;;;;;;4989525;28;20042;-57
2022/01/20 07:04:38;;;;;;;5.40;4.60;;;;;;;;;;4993248;28;20042;-57
2022/01/20 07:07:05;;;;;;;5.82;5.10;;;;;;;;;;4988858;28;20064;-57
2022/01/20 07:09:32;;;;;;;6.68;5.30;;;;;;;;;;4984875;28;20456;-56
2022/01/20 07:11:58;;;;;;;8.60;5.30;;;;;;;;;;4985060;28;20022;-57
2022/01/20 07:14:24;;;;;;;7.05;5.47;;;;;;;;;;4987979;28;20382;-56
2022/01/20 07:16:50;;;;;;;6.75;4.97;;;;;;;;;;4981925;28;20109;-59
2022/01/20 07:19:16;;;;;;;7.90;5.70;;;;;;;;;;4985960;28;20492;-57
2022/01/20 07:21:43;;;;;;;7.60;5.25;;;;;;;;;;4982156;28;20129;-58
2022/01/20 07:24:09;;;;;;;8.35;5.38;;;;;;;;;;4980233;28;20109;-58
2022/01/20 07:26:34;;;;;;;6.18;5.18;;;;;;;;;;4978264;28;20030;-58
2022/01/20 07:29:00;;;;;;;6.82;5.00;;;;;;;;;;4989160;28;20042;-57
2022/01/20 07:31:26;;;;;;;7.82;4.88;;;;;;;;;;4975831;28;20549;-57
2022/01/20 07:33:52;;;;;;;6.20;5.05;;;;;;;;;;4982893;28;20034;-56
2022/01/20 07:36:18;;;;;;;7.30;5.22;;;;;;;;;;4972074;28;20475;-58
2022/01/20 07:38:44;;;;;;;6.55;4.93;;;;;;;;;;4980846;28;20109;-56
2022/01/20 07:41:10;;;;;;;6.75;5.35;;;;;;;;;;4981718;28;20577;-58
2022/01/20 07:43:37;;;;;;;5.97;4.88;;;;;;;;;;4988742;28;20034;-57
2022/01/20 07:46:03;;;;;;;6.35;4.97;;;;;;;;;;4980014;28;20038;-57
2022/01/20 07:48:28;;;;;;;8.20;5.28;;;;;;;;;;4983563;28;20062;-58
2022/01/20 07:50:54;;;;;;;8.73;5.55;;;;;;;;;;4984700;28;20066;-58
2022/01/20 07:53:20;;;;;;;9.75;5.40;;;;;;;;;;4987579;28;20027;-58
2022/01/20 07:55:45;;;;;;;7.60;6.03;;;;;;;;;;4985194;28;20037;-58
2022/01/20 07:58:11;;;;;;;7.03;5.55;;;;;;;;;;4980163;28;20049;-57
2022/01/20 08:00:37;;;;;;;7.15;5.78;;;;;;;;;;4984536;28;20550;-58
2022/01/20 08:03:03;;;;;;;7.25;5.22;;;;;;;;;;4988982;28;20129;-58
2022/01/20 08:05:29;;;;;;;7.57;5.05;;;;;;;;;;4985914;28;20165;-57
2022/01/20 08:07:55;;;;;;;6.30;5.35;;;;;;;;;;4984221;28;20038;-58
2022/01/20 08:10:21;;;;;;;6.25;4.97;;;;;;;;;;4986175;28;20502;-56
2022/01/20 08:12:47;;;;;;;7.60;5.20;;;;;;;;;;4988238;28;20042;-57
2022/01/20 08:15:15;;;;;;;6.45;5.18;;;;;;;;;;4985647;28;20400;-55
2022/01/20 08:17:42;;;;;;;7.93;5.57;;;;;;;;;;4985801;28;20042;-58
2022/01/20 08:20:10;;;;;;;6.20;4.95;;;;;;;;;;4983830;28;20111;-58
2022/01/20 08:22:36;;;;;;;5.82;5.05;;;;;;;;;;4986036;28;20960;-58
2022/01/20 08:25:11;;;;;;;5.75;4.97;;;;;;;;;;4987581;28;20126;-58
2022/01/20 08:27:37;;;;;;;6.10;4.78;;;;;;;;;;4986917;28;20057;-58
2022/01/20 08:30:08;;;;;;;4.55;4.05;;;;;;;;;;4989566;28;20030;-58
2022/01/20 08:32:34;;;;;;;5.07;4.57;;;;;;;;;;4979695;28;20030;-58
2022/01/20 08:35:04;;;;;;;7.32;5.50;;;;;;;;;;4981098;28;20042;-58
2022/01/20 08:37:30;;;;;;;6.82;5.35;;;;;;;;;;4982538;28;20382;-58
2022/01/20 08:39:56;;;;;;;5.65;5.10;;;;;;;;;;4983221;28;20046;-55
2022/01/20 08:42:22;;;;;;;5.63;4.25;;;;;;;;;;4982255;28;20478;-55
2022/01/20 08:44:48;;;;;;;6.18;5.22;;;;;;;;;;4984932;28;20046;-53
2022/01/20 08:47:18;;;;;;;8.00;5.65;;;;;;;;;;4986652;28;20038;-55
2022/01/20 08:49:46;;;;;;;7.38;5.25;;;;;;;;;;4978602;28;20196;-54
2022/01/20 08:52:11;;;;;;;6.75;5.05;;;;;;;;;;4978367;28;20501;-58
2022/01/20 08:54:38;;;;;;;5.22;4.72;;;;;;;;;;4981751;28;20069;-55
2022/01/20 08:57:04;;;;;;;5.50;4.82;;;;;;;;;;4982028;28;20069;-56
2022/01/20 08:59:30;;;;;;;9.13;4.97;;;;;;;;;;4981187;28;20894;-56
2022/01/20 09:01:56;;;;;;;5.07;4.30;;;;;;;;;;4980726;28;20109;-57
2022/01/20 09:04:22;;;;;;;6.45;4.53;;;;;;;;;;4982872;28;20065;-55
2022/01/20 09:06:48;;;;;;;5.80;3.90;;;;;;;;;;4988030;28;20121;-55
2022/01/20 09:09:16;;;;;;;4.70;4.03;;;;;;;;;;4977872;28;20438;-55
2022/01/20 09:11:49;;;;;;;4.60;4.20;;;;;;;;;;4986417;28;20040;-56
2022/01/20 09:16:59;;;;;;;6.88;4.38;;;;;;;;;;4977223;28;20093;-58
2022/01/20 09:19:25;;;;;;;6.10;4.97;;;;;;;;;;4985286;28;20070;-53
2022/01/20 09:21:50;;;;;;;5.57;4.53;;;;;;;;;;4992422;28;20549;-54
2022/01/20 09:24:16;;;;;;;4.68;4.13;;;;;;;;;;4983234;28;20038;-51
2022/01/20 09:26:42;;;;;;;8.30;4.68;;;;;;;;;;4990966;28;20037;-58
2022/01/20 09:29:08;;;;;;;5.78;4.13;;;;;;;;;;4984546;28;20110;-57
2022/01/20 09:31:38;;;;;;;4.15;3.75;;;;;;;;;;4983118;28;20034;-55
2022/01/20 09:34:04;;;;;;;5.63;3.55;;;;;;;;;;4981000;28;20444;-57
2022/01/20 09:36:30;;;;;;;3.58;3.10;;;;;;;;;;4977322;28;20085;-58
2022/01/20 09:38:56;;;;;;;3.83;3.10;;;;;;;;;;4992832;28;20029;-58
2022/01/20 09:41:21;;;;;;;4.53;3.90;;;;;;;;;;4984582;28;20052;-58
2022/01/20 09:43:49;;;;;;;4.18;3.33;;;;;;;;;;4985405;28;20133;-54
2022/01/20 09:46:15;;;;;;;8.70;4.05;;;;;;;;;;4984220;28;20041;-58
2022/01/20 09:48:41;;;;;;;3.60;3.30;;;;;;;;;;4991874;28;20031;-56
2022/01/20 09:51:11;;;;;;;6.38;4.15;;;;;;;;;;4988340;28;20031;-58
2022/01/20 09:53:37;;;;;;;4.43;3.88;;;;;;;;;;4991348;28;20122;-58
2022/01/20 09:56:03;;;;;;;5.47;3.60;;;;;;;;;;4988306;28;20062;-55
2022/01/20 09:58:29;;;;;;;5.35;4.43;;;;;;;;;;4992583;28;20685;-57
2022/01/20 10:00:58;;;;;;;4.10;3.78;;;;;;;;;;4980238;28;20027;-57
2022/01/20 10:03:24;;;;;;;7.05;5.28;;;;;;;;;;4984416;28;20027;-59
2022/01/20 10:05:53;;;;;;;4.38;3.97;;;;;;;;;;4992426;28;20048;-55
2022/01/20 10:08:27;;;;;;;4.40;3.92;;;;;;;;;;4987688;28;20058;-58
2022/01/20 10:11:00;;;;;;;3.58;3.28;;;;;;;;;;4985023;28;20030;-57
2022/01/20 10:13:30;;;;;;;3.42;3.20;;;;;;;;;;4986901;28;20034;-59
2022/01/20 10:15:56;;;;;;;5.15;3.55;;;;;;;;;;4985826;28;20537;-58
2022/01/20 10:18:22;;;;;;;3.65;3.33;;;;;;;;;;4979781;28;20027;-58
2022/01/20 10:20:57;;;;;;;4.93;3.05;;;;;;;;;;4988052;28;20060;-59
2022/01/20 10:23:48;;;;;;;4.03;3.50;;;;;;;;;;4982667;28;20054;-58
2022/01/20 10:26:16;;;;;;;3.63;3.20;;;;;;;;;;4983418;28;20034;-58
2022/01/20 10:28:45;;;;;;;3.80;3.13;;;;;;;;;;4979214;28;20027;-58
2022/01/20 10:31:11;;;;;;;4.90;3.58;;;;;;;;;;4985000;28;20474;-55
2022/01/20 10:33:41;;;;;;;3.63;3.33;;;;;;;;;;4988431;28;20046;-57
2022/01/20 10:36:08;;;;;;;4.78;3.47;;;;;;;;;;4988517;28;20049;-57
2022/01/20 10:38:34;;;;;;;5.70;3.72;;;;;;;;;;4982292;28;20211;-55
2022/01/20 10:41:00;;;;;;;3.17;2.88;;;;;;;;;;4982850;28;20046;-58
2022/01/20 10:43:32;;;;;;;3.75;2.78;;;;;;;;;;4984500;28;20041;-58
2022/01/20 10:46:24;;;;;;;3.35;2.90;;;;;;;;;;4985906;28;20486;-58
2022/01/20 10:49:00;;;;;;;6.95;3.03;;;;;;;;;;4986035;28;20049;-57
2022/01/20 10:51:26;;;;;;;3.03;2.83;;;;;;;;;;4984766;28;20030;-57
2022/01/20 10:54:02;;;;;;;2.95;2.75;;;;;;;;;;4983362;28;20031;-56
2022/01/20 10:56:28;;;;;;;3.55;2.90;;;;;;;;;;4989140;28;20144;-57
2022/01/20 10:58:54;;;;;;;4.57;3.40;;;;;;;;;;4987960;28;20103;-53
2022/01/20 11:01:20;;;;;;;9.52;2.90;;;;;;;;;;4985471;28;20045;-59
2022/01/20 11:03:46;;;;;;;4.25;2.88;;;;;;;;;;4984120;28;20050;-55
2022/01/20 11:06:12;;;;;;;3.10;2.90;;;;;;;;;;4986103;28;20092;-57
2022/01/20 11:08:40;;;;;;;5.55;2.92;;;;;;;;;;4982408;28;20065;-57
2022/01/20 11:11:06;;;;;;;4.65;3.00;;;;;;;;;;4986240;28;20034;-57
2022/01/20 11:13:32;;;;;;;4.35;3.55;;;;;;;;;;4983195;28;20041;-58
2022/01/20 11:15:57;;;;;;;5.50;3.40;;;;;;;;;;4983693;28;20038;-55
2022/01/20 11:18:27;;;;;;;3.63;2.83;;;;;;;;;;4983850;28;20390;-56
2022/01/20 11:20:55;;;;;;;6.75;2.75;;;;;;;;;;4985646;28;20034;-59
2022/01/20 11:23:21;;;;;;;3.30;2.70;;;;;;;;;;4984511;28;20042;-55
2022/01/20 11:25:47;;;;;;;3.10;2.90;;;;;;;;;;4989600;28;20033;-57
2022/01/20 11:28:20;;;;;;;7.82;2.88;;;;;;;;;;4983126;28;20474;-58
2022/01/20 11:31:08;;;;;;;3.63;2.50;;;;;;;;;;4982306;28;20387;-58
2022/01/20 11:33:39;;;;;;;2.70;2.50;;;;;;;;;;4984190;28;20058;-55
2022/01/20 11:36:09;;;;;;;8.00;2.88;;;;;;;;;;4985920;28;20023;-57
2022/01/20 11:38:45;;;;;;;2.10;2.00;;;;;;;;;;4981988;28;20030;-56
2022/01/20 11:41:16;;;;;;;3.53;2.10;;;;;;;;;;4993241;28;20030;-54
2022/01/20 11:43:48;;;;;;;2.35;2.10;;;;;;;;;;4989155;28;20121;-58
2022/01/20 11:46:22;;;;;;;6.55;2.28;;;;;;;;;;4983347;28;20041;-57
2022/01/20 11:49:02;;;;;;;2.53;2.05;;;;;;;;;;4984548;28;20045;-57
2022/01/20 11:51:41;;;;;;;2.20;2.08;;;;;;;;;;4991006;28;20124;-57
2022/01/20 11:54:07;;;;;;;2.10;1.95;;;;;;;;;;4978707;28;20121;-56
2022/01/20 11:56:39;;;;;;;2.10;2.00;;;;;;;;;;4991543;28;21892;-59
2022/01/20 11:59:08;;;;;;;1.92;1.77;;;;;;;;;;4985812;28;20034;-57
2022/01/20 12:01:55;;;;;;;2.40;2.20;;;;;;;;;;4985636;28;20036;-58
2022/01/20 12:04:34;;;;;;;2.22;2.00;;;;;;;;;;4991331;28;20036;-58
2022/01/20 12:07:01;;;;;;;1.92;1.58;;;;;;;;;;4986068;28;20037;-58
2022/01/20 12:09:30;;;;;;;3.05;2.10;;;;;;;;;;4981724;28;20038;-56
2022/01/20 12:11:56;;;;;;;3.67;1.90;;;;;;;;;;4990510;28;20034;-58
2022/01/20 12:14:34;;;;;;;2.13;1.70;;;;;;;;;;4987237;28;20026;-57
2022/01/20 12:17:13;;;;;;;2.42;2.22;;;;;;;;;;4978454;28;20027;-58
2022/01/20 12:19:38;;;;;;;2.72;2.53;;;;;;;;;;4986567;28;20757;-58
2022/01/20 12:22:05;;;;;;;2.03;1.88;;;;;;;;;;4983618;28;20084;-57
2022/01/20 12:24:32;;;;;;;2.05;1.83;;;;;;;;;;4986394;28;20092;-57
2022/01/20 12:26:58;;;;;;;1.90;1.80;;;;;;;;;;4986957;28;20480;-56
2022/01/20 12:29:36;;;;;;;2.10;2.00;;;;;;;;;;4979346;28;20054;-57
2022/01/20 12:32:09;;;;;;;2.17;1.98;;;;;;;;;;4984369;28;20030;-58
2022/01/20 12:34:35;;;;;;;2.45;2.20;;;;;;;;;;4992041;28;20038;-56
2022/01/20 12:37:00;;;;;;;4.13;2.20;;;;;;;;;;4979100;28;20057;-57
2022/01/20 12:39:30;;;;;;;4.97;2.28;;;;;;;;;;4986354;28;20079;-59
2022/01/20 12:41:58;;;;;;;3.08;2.20;;;;;;;;;;4989798;28;20034;-53
2022/01/20 12:44:24;;;;;;;2.20;1.70;;;;;;;;;;4992779;28;20467;-58
2022/01/20 12:46:50;;;;;;;8.70;2.20;;;;;;;;;;4980166;28;20038;-55
2022/01/20 12:49:18;;;;;;;3.22;2.00;;;;;;;;;;4977904;28;20108;-58
2022/01/20 12:51:54;;;;;;;2.70;2.10;;;;;;;;;;4989070;28;20062;-58
2022/01/20 12:54:31;;;;;;;8.88;1.80;;;;;;;;;;4982326;28;20109;-58
2022/01/20 12:57:00;;;;;;;2.20;2.00;;;;;;;;;;4989820;28;20037;-56
2022/01/20 12:59:35;;;;;;;3.60;1.73;;;;;;;;;;4986991;28;20049;-56
2022/01/20 13:02:08;;;;;;;2.35;2.15;;;;;;;;;;4992226;28;20038;-58
2022/01/20 13:04:36;;;;;;;2.05;1.80;;;;;;;;;;4986123;28;20126;-59
2022/01/20 13:07:05;;;;;;;2.25;2.05;;;;;;;;;;4986774;28;20085;-57
2022/01/20 13:09:42;;;;;;;3.75;2.50;;;;;;;;;;4986008;28;20772;-58
2022/01/20 13:12:10;;;;;;;3.58;2.97;;;;;;;;;;4984873;28;20049;-57
2022/01/20 13:14:44;;;;;;;5.20;2.78;;;;;;;;;;4990962;28;20039;-59
2022/01/20 13:17:18;;;;;;;4.57;2.17;;;;;;;;;;4992690;28;20383;-57
2022/01/20 13:19:47;;;;;;;2.55;2.35;;;;;;;;;;4986157;28;20050;-55
2022/01/20 13:22:29;;;;;;;2.97;2.35;;;;;;;;;;4987360;28;20041;-58
2022/01/20 13:25:10;;;;;;;5.45;2.10;;;;;;;;;;4990454;28;20113;-55
2022/01/20 13:27:37;;;;;;;2.30;1.92;;;;;;;;;;4990656;28;20180;-59
2022/01/20 13:30:04;;;;;;;1.90;1.80;;;;;;;;;;4988013;28;20039;-59
2022/01/20 13:32:30;;;;;;;2.33;2.10;;;;;;;;;;4985428;28;20545;-58
2022/01/20 13:34:58;;;;;;;4.32;2.38;;;;;;;;;;4987957;28;20034;-58
2022/01/20 13:37:25;;;;;;;2.35;2.13;;;;;;;;;;4994547;28;20065;-54
2022/01/20 13:39:57;;;;;;;2.03;1.90;;;;;;;;;;4989012;28;20126;-57
2022/01/20 13:45:03;;;;;;;2.35;2.15;;;;;;;;;;4991743;28;20042;-58
2022/01/20 13:47:29;;;;;;;2.20;2.00;;;;;;;;;;4992135;28;20482;-56
2022/01/20 13:49:56;;;;;;;2.40;2.20;;;;;;;;;;4989260;28;20058;-58
2022/01/20 13:52:22;;;;;;;2.90;2.60;;;;;;;;;;4982297;28;20387;-57
2022/01/20 13:54:51;;;;;;;4.95;2.35;;;;;;;;;;4991530;28;20466;-57
2022/01/20 13:57:19;;;;;;;3.08;2.40;;;;;;;;;;4986360;28;20037;-57
2022/01/20 13:59:53;;;;;;;5.72;3.42;;;;;;;;;;4987274;28;20100;-58
2022/01/20 14:02:21;;;;;;;3.90;2.33;;;;;;;;;;4988417;28;20120;-56
2022/01/20 14:04:48;;;;;;;2.25;1.95;;;;;;;;;;4989853;28;20067;-58
2022/01/20 14:07:14;;;;;;;4.03;2.03;;;;;;;;;;4991303;28;20386;-55
2022/01/20 14:09:40;;;;;;;5.40;3.08;;;;;;;;;;4988253;28;20124;-58
2022/01/20 14:12:06;;;;;;;2.85;2.20;;;;;;;;;;4992399;28;20430;-59
2022/01/20 14:14:31;;;;;;;2.75;2.50;;;;;;;;;;4988177;28;20030;-57
2022/01/20 14:17:05;;;;;;;3.08;2.53;;;;;;;;;;4987475;28;20034;-57
2022/01/20 14:19:35;;;;;;;4.63;2.70;;;;;;;;;;4984587;28;20038;-56
2022/01/20 14:22:03;;;;;;;3.05;2.15;;;;;;;;;;4986605;28;20035;-57
2022/01/20 14:24:29;;;;;;;2.22;2.03;;;;;;;;;;4984392;28;20518;-59
2022/01/20 14:26:58;;;;;;;3.03;2.10;;;;;;;;;;4995571;28;20030;-58
2022/01/20 14:29:25;;;;;;;4.18;2.83;;;;;;;;;;4991248;28;20057;-58
2022/01/20 14:31:52;;;;;;;1.90;1.80;;;;;;;;;;4989451;28;20037;-59
2022/01/20 14:34:18;;;;;;;2.53;2.33;;;;;;;;;;4983032;28;20030;-58
2022/01/20 14:36:44;;;;;;;6.65;2.17;;;;;;;;;;4991296;28;20088;-58
2022/01/20 14:39:09;;;;;;;2.20;2.00;;;;;;;;;;4987612;28;20036;-59
2022/01/20 14:41:35;;;;;;;2.00;1.70;;;;;;;;;;4987137;28;20041;-56
2022/01/20 14:44:00;;;;;;;2.30;2.10;;;;;;;;;;4990355;28;20128;-58
2022/01/20 14:46:26;;;;;;;2.40;2.20;;;;;;;;;;4978234;28;20372;-56
2022/01/20 14:48:52;;;;;;;2.45;2.25;;;;;;;;;;4986229;28;20037;-59
2022/01/20 14:51:18;;;;;;;3.00;2.20;;;;;;;;;;4982048;28;20067;-57
2022/01/20 14:53:44;;;;;;;2.75;2.10;;;;;;;;;;4985302;28;20026;-60
2022/01/20 14:56:16;;;;;;;2.30;2.10;;;;;;;;;;4987443;28;20033;-58
2022/01/20 14:58:41;;;;;;;2.60;2.05;;;;;;;;;;4985829;28;20030;-59
2022/01/20 15:01:07;;;;;;;5.32;2.50;;;;;;;;;;4983092;28;20048;-57
2022/01/20 15:03:34;;;;;;;2.55;2.35;;;;;;;;;;4980279;28;20038;-56
2022/01/20 15:06:00;;;;;;;3.55;2.47;;;;;;;;;;4988881;28;20096;-55
2022/01/20 15:08:26;;;;;;;2.97;2.58;;;;;;;;;;4986737;28;20811;-59
2022/01/20 15:10:52;;;;;;;2.97;2.47;;;;;;;;;;4986899;28;20106;-58
2022/01/20 15:13:18;;;;;;;2.30;2.10;;;;;;;;;;4982785;28;20030;-58
2022/01/20 15:15:44;;;;;;;2.80;2.47;;;;;;;;;;4983397;28;20428;-57
2022/01/20 15:18:10;;;;;;;3.83;3.25;;;;;;;;;;4981808;28;20038;-58
2022/01/20 15:20:36;;;;;;;4.55;3.08;;;;;;;;;;4992546;28;20106;-58
2022/01/20 15:23:01;;;;;;;2.63;2.05;;;;;;;;;;4992197;28;20050;-59
2022/01/20 15:25:28;;;;;;;2.60;2.40;;;;;;;;;;4985666;28;20027;-59
2022/01/20 15:27:54;;;;;;;2.22;2.03;;;;;;;;;;4993077;28;20041;-56
2022/01/20 15:30:21;;;;;;;2.83;2.60;;;;;;;;;;4979072;28;20118;-58
2022/01/20 15:32:48;;;;;;;4.38;2.78;;;;;;;;;;4987435;28;20117;-56
2022/01/20 15:35:14;;;;;;;2.80;2.55;;;;;;;;;;4988304;28;20058;-57
2022/01/20 15:37:40;;;;;;;4.85;2.78;;;;;;;;;;4986334;28;20520;-58
2022/01/20 15:40:07;;;;;;;2.80;2.60;;;;;;;;;;4988815;28;20025;-58
2022/01/20 15:42:33;;;;;;;3.35;2.88;;;;;;;;;;4985266;28;20041;-58
2022/01/20 15:45:01;;;;;;;3.22;2.90;;;;;;;;;;4990713;28;20030;-57
2022/01/20 15:47:27;;;;;;;5.82;2.85;;;;;;;;;;4989030;28;20034;-58
2022/01/20 15:49:53;;;;;;;2.40;2.25;;;;;;;;;;4983250;28;20041;-58
2022/01/20 15:52:19;;;;;;;4.00;2.83;;;;;;;;;;4985040;28;20041;-58